KGSO/GSO METAR and TAF weather

Enter ICAO airport designator
Station Type Date Time Source
KGSO METAR 2020/01/28 20:54 UTC NOAA

KGSO 282054Z VRB06KT 10SM FEW036 11/M02 A2993 RMK AO2 SLP136 T01061017 55010


Station Type Date Time Source
KGSO Decoded METAR 2020/01/28 20:54 UTC NOAA

PIEDMONT TRIAD INTERNATIONAL AIRPORT , NC, United States (KGSO) 36-06N 079-57W 275M
Jan 28, 2020 - 03:54 PM EST / 2020.01.28 2054 UTC
Wind: Variable at 7 MPH (6 KT):0
Visibility: 10 mile(s):0
Sky conditions: mostly clear
Temperature: 51.1 F (10.6 C)
Dew Point: 28.9 F (-1.7 C)
Relative Humidity: 42%
Pressure (altimeter): 29.93 in. Hg (1013 hPa)
Pressure tendency: 0.03 inches (1.0 hPa) lower than three hours ago
ob: KGSO 282054Z VRB06KT 10SM FEW036 11/M02 A2993 RMK AO2 SLP136 T01061017 55010
cycle: 21

Station Type Date Time Source
KGSO TAF 2020/01/28 18:39 UTC NOAA

TAF KGSO 281737Z 2818/2918 32006KT P6SM SCT040
FM290300 36003KT P6SM BKN035

Example: see airport list